Time;durP1;ratioP1;P1;durP2;ratioP2;P2;SDS_P1;SDS_P2;PMS_P1;PMS_P2;Temp;Humidity;BMP_temperature;BMP_pressure;BME280_temperature;BME280_humidity;BME280_pressure;Samples;Min_cycle;Max_cycle;Signal;HPM_P1;HPM_P2
2023/07/03 00:01:29;;;;;;;8.20;4.93;;;17.60;99.90;;;;;;5015040;28;20247;-74
2023/07/03 00:03:54;;;;;;;13.15;5.38;;;17.60;99.90;;;;;;5016027;28;20560;-75
2023/07/03 00:06:20;;;;;;;8.32;4.97;;;17.50;99.90;;;;;;5012609;28;20227;-76
2023/07/03 00:08:46;;;;;;;10.25;5.30;;;17.50;99.90;;;;;;5010821;28;20225;-75
2023/07/03 00:11:11;;;;;;;12.77;5.13;;;17.50;99.90;;;;;;5006579;28;20185;-75
2023/07/03 00:13:37;;;;;;;9.65;5.10;;;17.50;99.90;;;;;;5006956;28;20201;-75
2023/07/03 00:16:04;;;;;;;7.85;4.68;;;17.50;99.90;;;;;;5009027;28;20758;-75
2023/07/03 00:18:30;;;;;;;9.25;5.20;;;17.50;99.90;;;;;;5005049;28;20215;-75
2023/07/03 00:20:57;;;;;;;11.65;5.32;;;17.50;99.90;;;;;;5021107;28;20562;-75
2023/07/03 00:23:23;;;;;;;9.77;4.90;;;17.50;99.90;;;;;;5009636;28;20169;-74
2023/07/03 00:25:50;;;;;;;8.57;5.15;;;17.40;99.90;;;;;;5009547;28;20198;-76
2023/07/03 00:28:16;;;;;;;10.50;5.00;;;17.40;99.90;;;;;;5007670;28;20274;-76
2023/07/03 00:30:43;;;;;;;8.60;5.05;;;17.30;99.90;;;;;;5011985;28;20301;-75
2023/07/03 00:33:09;;;;;;;10.27;5.28;;;17.30;99.90;;;;;;5015620;28;20207;-74
2023/07/03 00:35:35;;;;;;;12.35;5.50;;;17.20;99.90;;;;;;5015183;28;20252;-74
2023/07/03 00:38:01;;;;;;;12.50;5.55;;;17.20;99.90;;;;;;5033589;28;20657;-75
2023/07/03 00:40:27;;;;;;;12.80;5.25;;;17.10;99.90;;;;;;5014603;28;20205;-75
2023/07/03 00:42:52;;;;;;;9.02;5.43;;;17.10;99.90;;;;;;5012953;28;20213;-74
2023/07/03 00:45:19;;;;;;;11.38;5.10;;;17.10;99.90;;;;;;5017267;28;20235;-75
2023/07/03 00:47:45;;;;;;;11.73;4.90;;;17.10;99.90;;;;;;5010352;28;20217;-75
2023/07/03 00:50:11;;;;;;;13.32;5.20;;;17.00;99.90;;;;;;5008989;28;20169;-74
2023/07/03 00:52:39;;;;;;;10.35;5.47;;;17.00;99.90;;;;;;5006470;28;20256;-74
2023/07/03 00:55:06;;;;;;;9.82;5.32;;;17.00;99.90;;;;;;5009241;28;20197;-75
2023/07/03 00:57:32;;;;;;;12.68;5.35;;;17.00;99.90;;;;;;5003942;28;20220;-75
2023/07/03 00:59:59;;;;;;;9.07;5.57;;;17.00;99.90;;;;;;5007745;28;20214;-76
2023/07/03 01:02:30;;;;;;;10.10;5.13;;;17.00;99.90;;;;;;5003798;28;20173;-76
2023/07/03 01:05:09;;;;;;;11.38;6.03;;;17.00;99.90;;;;;;5001961;28;20180;-75
2023/07/03 01:07:37;;;;;;;11.43;5.80;;;16.90;99.90;;;;;;5006945;28;20617;-74
2023/07/03 01:10:13;;;;;;;9.13;5.10;;;16.80;99.90;;;;;;5021115;28;20245;-75
2023/07/03 01:12:44;;;;;;;13.00;5.50;;;16.80;99.90;;;;;;5014449;28;20235;-74
2023/07/03 01:15:17;;;;;;;9.15;5.45;;;16.90;99.90;;;;;;5017852;28;20200;-75
2023/07/03 01:17:47;;;;;;;9.40;5.53;;;16.80;99.90;;;;;;5017930;28;20266;-76
2023/07/03 01:20:17;;;;;;;13.57;5.90;;;16.80;99.90;;;;;;5021829;28;20207;-76
2023/07/03 01:23:08;;;;;;;13.35;5.88;;;16.80;99.90;;;;;;5012700;28;20229;-74
2023/07/03 01:25:37;;;;;;;11.18;5.70;;;16.70;99.90;;;;;;5009903;28;20263;-75
2023/07/03 01:28:06;;;;;;;10.63;5.88;;;16.70;99.90;;;;;;5011505;28;20219;-75
2023/07/03 01:30:33;;;;;;;8.40;4.97;;;16.80;99.90;;;;;;5028553;28;20584;-74
2023/07/03 01:33:02;;;;;;;9.65;6.15;;;16.90;99.90;;;;;;5012540;28;20754;-75
2023/07/03 01:35:28;;;;;;;12.27;5.50;;;17.00;99.90;;;;;;5008539;28;20177;-75
2023/07/03 01:37:55;;;;;;;11.95;5.95;;;17.00;99.90;;;;;;5008193;28;20186;-74
2023/07/03 01:40:23;;;;;;;9.50;5.65;;;17.10;99.90;;;;;;5006686;28;20212;-75
2023/07/03 01:42:50;;;;;;;8.43;5.45;;;17.10;99.90;;;;;;5013297;28;20271;-75
2023/07/03 01:45:16;;;;;;;10.98;5.65;;;17.10;99.90;;;;;;5004215;28;20692;-73
2023/07/03 01:47:42;;;;;;;10.45;5.82;;;17.10;99.90;;;;;;5018799;28;20275;-75
2023/07/03 01:50:18;;;;;;;10.65;5.63;;;17.20;99.90;;;;;;5020061;28;20177;-74
2023/07/03 01:53:01;;;;;;;10.77;5.60;;;17.20;99.90;;;;;;5020481;28;20208;-77
2023/07/03 01:55:33;;;;;;;8.30;5.63;;;17.10;99.90;;;;;;5014980;28;20209;-74
2023/07/03 01:58:13;;;;;;;13.27;5.97;;;17.20;99.90;;;;;;5018929;28;20239;-75
2023/07/03 02:00:52;;;;;;;9.60;5.40;;;17.30;99.90;;;;;;5019674;28;20645;-74
2023/07/03 02:03:32;;;;;;;12.05;6.60;;;17.30;99.90;;;;;;5012806;28;20200;-74
2023/07/03 02:06:02;;;;;;;11.50;6.07;;;17.20;99.90;;;;;;5012393;28;22053;-75
2023/07/03 02:08:30;;;;;;;9.82;5.20;;;17.20;99.90;;;;;;5014424;28;20205;-76
2023/07/03 02:10:56;;;;;;;11.95;5.57;;;17.10;99.90;;;;;;5011801;28;20173;-75
2023/07/03 02:13:22;;;;;;;16.52;6.22;;;17.10;99.90;;;;;;5009350;28;20228;-75
2023/07/03 02:15:48;;;;;;;9.35;5.40;;;17.00;99.90;;;;;;5006465;28;20641;-75
2023/07/03 02:18:17;;;;;;;13.63;5.43;;;17.10;99.90;;;;;;5007908;28;20209;-75
2023/07/03 02:20:44;;;;;;;13.38;6.18;;;17.10;99.90;;;;;;5001779;28;20210;-75
2023/07/03 02:23:10;;;;;;;10.18;6.15;;;17.10;99.90;;;;;;5005951;28;20173;-74
2023/07/03 02:25:36;;;;;;;13.57;5.80;;;17.20;99.90;;;;;;5016477;28;20212;-76
2023/07/03 02:28:02;;;;;;;7.80;5.18;;;17.20;99.90;;;;;;5020739;28;20220;-75
2023/07/03 02:30:27;;;;;;;11.95;5.80;;;17.10;99.90;;;;;;5019037;28;20197;-75
2023/07/03 02:32:53;;;;;;;13.32;6.43;;;17.00;99.90;;;;;;5018301;28;20260;-74
2023/07/03 02:35:18;;;;;;;11.88;5.68;;;16.90;99.90;;;;;;5015715;28;20181;-75
2023/07/03 02:37:44;;;;;;;17.83;6.32;;;16.90;99.90;;;;;;5017364;28;20185;-75
2023/07/03 02:40:13;;;;;;;9.05;5.32;;;16.90;99.90;;;;;;5006134;28;20227;-74
2023/07/03 02:42:39;;;;;;;11.07;5.90;;;16.90;99.90;;;;;;5011785;28;20209;-76
2023/07/03 02:45:06;;;;;;;10.52;5.45;;;17.00;99.90;;;;;;5009361;28;20196;-74
2023/07/03 02:47:41;;;;;;;12.00;5.82;;;17.00;99.90;;;;;;5007644;28;20227;-76
2023/07/03 02:50:07;;;;;;;9.85;5.75;;;16.90;99.90;;;;;;5005800;28;20266;-75
2023/07/03 02:52:33;;;;;;;11.93;6.28;;;16.90;99.90;;;;;;5005706;28;20201;-74
2023/07/03 02:54:59;;;;;;;10.45;6.05;;;16.90;99.90;;;;;;5008286;28;20285;-74
2023/07/03 02:57:24;;;;;;;10.70;5.88;;;16.80;99.90;;;;;;5003976;28;20236;-75
2023/07/03 02:59:50;;;;;;;12.15;5.80;;;16.80;99.90;;;;;;5003055;28;20209;-75
2023/07/03 03:02:16;;;;;;;11.05;5.43;;;16.80;99.90;;;;;;5004320;28;20173;-74
2023/07/03 03:04:42;;;;;;;11.68;6.22;;;16.90;99.90;;;;;;5008449;28;20205;-75
2023/07/03 03:07:07;;;;;;;11.07;5.97;;;16.80;99.90;;;;;;5008108;28;20208;-74
2023/07/03 03:09:33;;;;;;;11.68;5.63;;;16.90;99.90;;;;;;5013060;28;20217;-75
2023/07/03 03:11:58;;;;;;;10.70;5.90;;;17.00;99.90;;;;;;5013187;28;20212;-75
2023/07/03 03:14:24;;;;;;;12.32;6.15;;;16.90;99.90;;;;;;5010635;28;20545;-74
2023/07/03 03:16:50;;;;;;;10.18;6.10;;;16.90;99.90;;;;;;5011541;28;20893;-75
2023/07/03 03:19:15;;;;;;;12.85;6.13;;;17.00;99.90;;;;;;5008677;28;20220;-74
2023/07/03 03:21:41;;;;;;;11.32;6.40;;;17.00;99.90;;;;;;5008738;28;20213;-75
2023/07/03 03:24:07;;;;;;;10.73;5.65;;;17.10;99.90;;;;;;5008711;28;20283;-75
2023/07/03 03:26:32;;;;;;;12.20;6.53;;;17.10;99.90;;;;;;5007267;28;20193;-75
2023/07/03 03:28:58;;;;;;;11.75;5.80;;;17.00;99.90;;;;;;5005042;28;20202;-75
2023/07/03 03:31:24;;;;;;;13.32;6.18;;;17.00;99.90;;;;;;5008370;28;20227;-75
2023/07/03 03:33:49;;;;;;;12.65;6.20;;;17.00;99.90;;;;;;5000903;28;20214;-75
2023/07/03 03:36:15;;;;;;;13.68;6.38;;;17.00;99.90;;;;;;5004558;28;20208;-73
2023/07/03 03:38:41;;;;;;;9.35;6.20;;;17.00;99.90;;;;;;5000497;28;20220;-75
2023/07/03 03:41:07;;;;;;;11.45;6.38;;;17.00;99.90;;;;;;5003112;28;20169;-74
2023/07/03 03:43:32;;;;;;;10.75;6.05;;;17.00;99.90;;;;;;5010772;28;20706;-76
2023/07/03 03:46:00;;;;;;;9.70;5.57;;;17.10;99.90;;;;;;5012699;28;20733;-73
2023/07/03 03:48:29;;;;;;;10.50;5.95;;;17.20;99.90;;;;;;5009984;28;20216;-75
2023/07/03 03:50:55;;;;;;;11.90;6.10;;;17.30;99.90;;;;;;5012250;28;20205;-74
2023/07/03 03:53:22;;;;;;;12.02;5.75;;;17.30;99.90;;;;;;5011737;28;20583;-75
2023/07/03 03:55:49;;;;;;;11.27;6.03;;;17.30;99.90;;;;;;5012374;28;20206;-74
2023/07/03 03:58:15;;;;;;;11.45;7.25;;;17.30;99.90;;;;;;5006522;28;20415;-74
2023/07/03 04:00:42;;;;;;;12.18;5.70;;;17.30;99.90;;;;;;5007747;28;20695;-75
2023/07/03 04:03:07;;;;;;;14.32;6.15;;;17.40;99.90;;;;;;5008094;28;20205;-74
2023/07/03 04:05:33;;;;;;;13.05;6.32;;;17.50;99.90;;;;;;5008422;28;20286;-74
2023/07/03 04:07:59;;;;;;;11.23;5.78;;;17.50;99.90;;;;;;5005704;28;20221;-74
2023/07/03 04:10:24;;;;;;;14.80;6.63;;;17.40;99.90;;;;;;5013886;28;20569;-74
2023/07/03 04:12:51;;;;;;;10.98;5.95;;;17.30;99.90;;;;;;5007603;28;20252;-74
2023/07/03 04:15:17;;;;;;;12.07;6.15;;;17.40;99.90;;;;;;5003414;28;20200;-74
2023/07/03 04:17:42;;;;;;;14.60;6.60;;;17.40;99.90;;;;;;4999974;28;20224;-75
2023/07/03 04:20:13;;;;;;;14.27;6.68;;;17.50;99.90;;;;;;5005731;28;20581;-74
2023/07/03 04:22:40;;;;;;;11.50;6.15;;;17.50;99.90;;;;;;5006023;28;20201;-76
2023/07/03 04:25:07;;;;;;;11.98;6.65;;;17.60;99.90;;;;;;5009257;28;20296;-74
2023/07/03 04:27:33;;;;;;;10.90;6.28;;;17.60;99.90;;;;;;5009118;28;20654;-75
2023/07/03 04:29:58;;;;;;;12.35;6.40;;;17.60;99.90;;;;;;5008489;28;20312;-74
2023/07/03 04:32:24;;;;;;;11.93;6.20;;;17.70;99.90;;;;;;5008213;28;20181;-74
2023/07/03 04:34:49;;;;;;;9.15;5.97;;;17.80;99.90;;;;;;5006230;28;20236;-75
2023/07/03 04:37:15;;;;;;;12.20;6.93;;;17.90;99.90;;;;;;5005849;28;20687;-76
2023/07/03 04:39:41;;;;;;;11.52;6.95;;;18.10;99.90;;;;;;5007888;28;20733;-75
2023/07/03 04:42:07;;;;;;;11.73;6.13;;;18.10;99.90;;;;;;5008865;28;20213;-74
2023/07/03 04:44:33;;;;;;;11.30;6.03;;;18.10;99.90;;;;;;5008332;28;20177;-74
2023/07/03 04:47:04;;;;;;;10.55;6.65;;;18.30;99.90;;;;;;5002994;28;20221;-75
2023/07/03 04:49:31;;;;;;;14.40;6.80;;;18.40;99.90;;;;;;5008542;28;20240;-75
2023/07/03 04:51:58;;;;;;;14.45;6.45;;;18.50;99.90;;;;;;5008534;28;20292;-75
2023/07/03 04:54:24;;;;;;;10.77;6.22;;;18.60;99.90;;;;;;5007706;28;20223;-74
2023/07/03 04:56:50;;;;;;;12.18;5.90;;;18.80;99.90;;;;;;5004063;28;20219;-74
2023/07/03 04:59:15;;;;;;;13.30;6.20;;;18.80;99.90;;;;;;5021493;28;20202;-74
2023/07/03 05:01:42;;;;;;;11.13;6.47;;;18.70;99.90;;;;;;5021818;28;20262;-76
2023/07/03 05:04:09;;;;;;;12.88;6.93;;;18.80;99.90;;;;;;5022242;28;20245;-75
2023/07/03 05:06:35;;;;;;;10.65;6.15;;;19.20;99.90;;;;;;5019495;28;20204;-75
2023/07/03 05:09:01;;;;;;;12.05;6.38;;;19.50;99.90;;;;;;5014601;28;20233;-74
2023/07/03 05:11:26;;;;;;;10.07;6.32;;;19.70;99.90;;;;;;5018599;28;20184;-75
2023/07/03 05:13:52;;;;;;;10.40;6.40;;;19.90;99.90;;;;;;5015429;28;20181;-75
2023/07/03 05:16:17;;;;;;;13.10;7.18;;;20.70;99.90;;;;;;5026697;28;20313;-73
2023/07/03 05:18:43;;;;;;;12.10;6.60;;;21.20;99.90;;;;;;5013006;28;20754;-74
2023/07/03 05:21:10;;;;;;;11.13;6.57;;;21.40;99.90;;;;;;5017437;28;20213;-72
2023/07/03 05:23:36;;;;;;;10.32;6.20;;;21.50;99.90;;;;;;5010836;28;20181;-74
2023/07/03 05:26:02;;;;;;;11.30;7.20;;;21.80;99.90;;;;;;5009017;28;20194;-73
2023/07/03 05:28:28;;;;;;;8.15;6.45;;;22.40;99.90;;;;;;5009589;28;20270;-74
2023/07/03 05:30:55;;;;;;;14.35;7.43;;;22.90;99.90;;;;;;5006043;28;20586;-73
2023/07/03 05:33:21;;;;;;;14.50;7.75;;;23.20;99.90;;;;;;5006747;28;20207;-74
2023/07/03 05:35:47;;;;;;;15.77;8.82;;;23.40;99.90;;;;;;5002767;28;20209;-75
2023/07/03 05:38:12;;;;;;;12.35;7.65;;;23.20;99.90;;;;;;5017168;28;20176;-73
2023/07/03 05:40:38;;;;;;;16.00;7.40;;;22.70;99.90;;;;;;5020474;28;20209;-74
2023/07/03 05:43:03;;;;;;;12.63;6.85;;;22.30;99.90;;;;;;5020601;28;20213;-75
2023/07/03 05:45:29;;;;;;;12.75;6.68;;;22.00;99.90;;;;;;5016333;28;20204;-73
2023/07/03 05:47:55;;;;;;;16.52;7.50;;;21.60;99.90;;;;;;5015988;28;20217;-74
2023/07/03 05:50:20;;;;;;;13.88;7.25;;;21.80;99.90;;;;;;5013418;28;20176;-73
2023/07/03 05:52:46;;;;;;;11.50;6.38;;;21.70;99.90;;;;;;5012460;28;20567;-75
2023/07/03 05:55:12;;;;;;;11.30;6.68;;;21.80;99.90;;;;;;5016075;28;20212;-73
2023/07/03 05:57:38;;;;;;;20.27;7.65;;;21.30;99.90;;;;;;5015801;28;20205;-75
2023/07/03 06:00:12;;;;;;;15.48;6.50;;;21.00;99.90;;;;;;5008592;28;20237;-74
2023/07/03 06:02:39;;;;;;;12.07;7.03;;;20.70;99.90;;;;;;5009956;28;20234;-73
2023/07/03 06:05:05;;;;;;;10.85;6.22;;;20.50;99.90;;;;;;5008067;28;20603;-74
2023/07/03 06:07:31;;;;;;;12.63;7.60;;;20.30;99.90;;;;;;5013560;28;20262;-73
2023/07/03 06:09:57;;;;;;;13.25;6.43;;;20.30;99.90;;;;;;5010080;28;20286;-73
2023/07/03 06:12:28;;;;;;;13.32;6.53;;;20.30;99.90;;;;;;5006489;28;20340;-74
2023/07/03 06:14:56;;;;;;;12.80;6.28;;;20.40;99.90;;;;;;5005520;28;20693;-73
2023/07/03 06:17:22;;;;;;;12.45;6.38;;;20.30;99.90;;;;;;5018113;28;20267;-74
2023/07/03 06:19:48;;;;;;;11.82;6.03;;;20.20;99.90;;;;;;5020196;28;20177;-74
2023/07/03 06:22:13;;;;;;;12.35;6.65;;;20.40;99.90;;;;;;5015767;28;20710;-72
2023/07/03 06:24:39;;;;;;;11.55;5.65;;;20.70;99.90;;;;;;5017147;28;20201;-74
2023/07/03 06:27:06;;;;;;;10.40;5.75;;;20.90;99.90;;;;;;5013659;28;20698;-74
2023/07/03 06:29:32;;;;;;;14.32;5.18;;;21.40;99.90;;;;;;5014083;28;20235;-76
2023/07/03 06:31:58;;;;;;;13.38;6.05;;;22.20;99.90;;;;;;5012786;28;20181;-74
2023/07/03 06:34:23;;;;;;;10.85;5.72;;;22.80;99.90;;;;;;5010696;28;20750;-73
2023/07/03 06:36:49;;;;;;;12.80;5.68;;;22.70;99.90;;;;;;5010480;28;20213;-73
2023/07/03 06:39:15;;;;;;;9.85;5.70;;;22.70;99.90;;;;;;5008287;28;20200;-75
2023/07/03 06:41:40;;;;;;;13.77;6.30;;;22.90;99.90;;;;;;5008483;28;20233;-74
2023/07/03 06:44:12;;;;;;;13.43;5.75;;;22.70;99.90;;;;;;5008201;28;20178;-75
2023/07/03 06:46:37;;;;;;;10.25;6.07;;;22.30;99.90;;;;;;5011876;28;20617;-76
2023/07/03 06:49:04;;;;;;;14.23;6.25;;;21.90;99.90;;;;;;5005681;28;20214;-75
2023/07/03 06:51:29;;;;;;;9.45;5.22;;;21.50;99.90;;;;;;5011762;28;20593;-74
2023/07/03 06:53:56;;;;;;;11.40;5.50;;;21.20;99.90;;;;;;5005805;28;20283;-74
2023/07/03 06:56:22;;;;;;;11.82;6.15;;;20.80;99.90;;;;;;5019734;28;20193;-74
2023/07/03 06:58:49;;;;;;;13.15;5.88;;;20.60;99.90;;;;;;5011482;28;20177;-74
2023/07/03 07:01:16;;;;;;;12.93;6.35;;;20.70;99.90;;;;;;5019706;28;20213;-75
2023/07/03 07:03:42;;;;;;;12.15;5.57;;;20.90;99.90;;;;;;5013561;28;20236;-74
2023/07/03 07:06:23;;;;;;;13.15;5.82;;;20.90;99.90;;;;;;5012189;28;20654;-74
2023/07/03 07:08:49;;;;;;;13.80;5.40;;;21.00;99.90;;;;;;5011983;28;20220;-74
2023/07/03 07:11:24;;;;;;;13.85;5.78;;;21.00;99.90;;;;;;5012570;28;20716;-75
2023/07/03 07:13:51;;;;;;;11.93;5.45;;;22.00;99.90;;;;;;5021425;28;20212;-75
2023/07/03 07:16:19;;;;;;;13.63;6.20;;;22.20;99.90;;;;;;5007771;28;20223;-75
2023/07/03 07:18:51;;;;;;;14.48;6.32;;;22.10;99.90;;;;;;5009011;28;20215;-76
2023/07/03 07:21:17;;;;;;;13.57;5.63;;;21.70;99.90;;;;;;5008200;28;20551;-75
2023/07/03 07:23:42;;;;;;;11.27;5.40;;;21.30;99.90;;;;;;5006504;28;20699;-76
2023/07/03 07:26:08;;;;;;;14.55;6.03;;;21.90;99.90;;;;;;5003255;28;20248;-75
2023/07/03 07:28:34;;;;;;;13.23;5.90;;;22.60;99.90;;;;;;5004374;28;20243;-75
2023/07/03 07:30:59;;;;;;;11.05;5.35;;;22.80;99.90;;;;;;5000903;28;20210;-75
2023/07/03 07:33:25;;;;;;;12.27;5.50;;;22.50;99.90;;;;;;5018323;28;20200;-76
2023/07/03 07:35:52;;;;;;;13.65;6.32;;;21.90;99.90;;;;;;5015178;28;20216;-75
2023/07/03 07:38:21;;;;;;;14.20;5.82;;;21.90;99.90;;;;;;5020054;28;20549;-75
2023/07/03 07:40:48;;;;;;;13.98;5.45;;;22.30;99.90;;;;;;5008679;28;20177;-75
2023/07/03 07:43:14;;;;;;;13.45;5.35;;;24.50;99.90;;;;;;5016339;28;20619;-76
2023/07/03 07:45:40;;;;;;;17.98;6.28;;;25.40;99.90;;;;;;5015437;28;20209;-76
2023/07/03 07:48:05;;;;;;;12.43;5.63;;;24.80;99.90;;;;;;5011976;28;20224;-74
2023/07/03 07:50:35;;;;;;;12.70;5.65;;;24.60;99.90;;;;;;5009672;28;20699;-76
2023/07/03 07:53:01;;;;;;;12.23;5.45;;;25.10;99.90;;;;;;5009798;28;20176;-74
2023/07/03 07:55:27;;;;;;;13.00;6.15;;;25.10;99.90;;;;;;5011893;28;20224;-75
2023/07/03 07:57:52;;;;;;;12.98;5.93;;;25.30;99.90;;;;;;5007295;28;20674;-76
2023/07/03 08:00:19;;;;;;;11.38;5.03;;;25.70;99.90;;;;;;5007140;28;20212;-76
2023/07/03 08:02:45;;;;;;;10.35;5.13;;;25.90;99.90;;;;;;5010480;28;20241;-75
2023/07/03 08:05:12;;;;;;;13.60;5.43;;;26.30;99.90;;;;;;5004768;28;20260;-74
2023/07/03 08:07:38;;;;;;;13.00;5.18;;;25.70;99.90;;;;;;5010056;28;20209;-76
2023/07/03 08:10:05;;;;;;;11.38;5.60;;;25.20;99.90;;;;;;5000755;28;20600;-74
2023/07/03 08:12:30;;;;;;;12.98;5.65;;;24.90;99.90;;;;;;5017478;28;20212;-75
2023/07/03 08:14:56;;;;;;;10.20;5.07;;;25.10;99.90;;;;;;5009015;28;20212;-75
2023/07/03 08:17:21;;;;;;;9.10;4.78;;;26.70;99.90;;;;;;5016215;28;20287;-76
2023/07/03 08:19:47;;;;;;;11.20;4.88;;;28.70;99.90;;;;;;5011832;28;20597;-76
2023/07/03 08:22:13;;;;;;;9.82;5.43;;;28.20;99.90;;;;;;5010303;28;20205;-75
2023/07/03 08:24:38;;;;;;;15.00;5.07;;;27.50;99.90;;;;;;5014597;28;20203;-75
2023/07/03 08:27:04;;;;;;;11.65;5.50;;;26.50;99.90;;;;;;5013192;28;20654;-74
2023/07/03 08:29:30;;;;;;;13.20;5.57;;;25.40;99.90;;;;;;5012946;28;20204;-75
2023/07/03 08:31:56;;;;;;;9.52;5.13;;;24.90;99.90;;;;;;5009639;28;20703;-76
2023/07/03 08:34:21;;;;;;;12.88;5.53;;;24.30;99.90;;;;;;5011259;28;20231;-75
2023/07/03 08:36:47;;;;;;;10.13;4.53;;;24.30;99.90;;;;;;5009584;28;20591;-75
2023/07/03 08:39:12;;;;;;;11.60;4.95;;;24.90;99.90;;;;;;5005071;28;20226;-76
2023/07/03 08:41:46;;;;;;;13.25;5.45;;;26.50;99.90;;;;;;5005884;28;20212;-75
2023/07/03 08:44:12;;;;;;;9.30;4.90;;;28.20;99.90;;;;;;5001531;28;20178;-76
2023/07/03 08:46:39;;;;;;;8.52;4.95;;;29.10;99.90;;;;;;5008683;28;20232;-76
2023/07/03 08:49:07;;;;;;;9.93;4.75;;;29.80;97.80;;;;;;5002555;28;20310;-73
2023/07/03 08:51:36;;;;;;;11.15;4.75;;;30.10;96.00;;;;;;5013387;28;20250;-73
2023/07/03 08:54:20;;;;;;;12.63;4.28;;;30.80;93.90;;;;;;5020457;28;20207;-73
2023/07/03 08:56:47;;;;;;;9.07;4.72;;;31.10;92.90;;;;;;5012121;28;20212;-75
2023/07/03 08:59:13;;;;;;;9.88;4.60;;;31.30;92.20;;;;;;5009478;28;20268;-72
2023/07/03 09:01:45;;;;;;;7.63;3.95;;;31.50;90.70;;;;;;5012606;28;20624;-74
2023/07/03 09:04:29;;;;;;;8.65;4.60;;;31.70;88.40;;;;;;5012217;28;20216;-73
2023/07/03 09:07:10;;;;;;;10.52;5.15;;;31.90;86.60;;;;;;5004670;28;20722;-74
2023/07/03 09:09:54;;;;;;;11.20;4.97;;;31.40;85.60;;;;;;5010231;28;20295;-73
2023/07/03 09:12:22;;;;;;;8.10;4.35;;;31.10;84.80;;;;;;5007863;28;20245;-72
2023/07/03 09:15:21;;;;;;;9.93;4.60;;;31.00;83.60;;;;;;5005954;28;20213;-73
2023/07/03 09:17:47;;;;;;;9.73;4.85;;;31.00;81.80;;;;;;5014719;28;20317;-74
2023/07/03 09:20:15;;;;;;;8.02;3.80;;;30.30;81.90;;;;;;5005907;28;20813;-73
2023/07/03 09:22:55;;;;;;;7.43;4.07;;;28.80;79.80;;;;;;5002654;28;20201;-74
2023/07/03 09:25:30;;;;;;;8.13;4.03;;;28.10;80.90;;;;;;5002598;28;20233;-73
2023/07/03 09:27:58;;;;;;;9.20;3.75;;;27.30;84.40;;;;;;5008642;28;20208;-73
2023/07/03 09:30:24;;;;;;;7.70;4.00;;;26.80;85.90;;;;;;5012310;28;20213;-73
2023/07/03 09:32:50;;;;;;;9.75;3.70;;;26.60;86.30;;;;;;5011862;28;20223;-74
2023/07/03 09:35:20;;;;;;;10.02;4.00;;;26.80;85.20;;;;;;5016624;28;20678;-73
2023/07/03 09:37:51;;;;;;;7.25;3.92;;;26.40;84.70;;;;;;5015026;28;20217;-74
2023/07/03 09:40:38;;;;;;;8.10;3.65;;;25.90;86.30;;;;;;5016550;28;20220;-74
2023/07/03 09:43:17;;;;;;;9.32;3.83;;;25.20;87.60;;;;;;5008728;28;20209;-74
2023/07/03 09:45:44;;;;;;;6.75;4.07;;;25.00;88.70;;;;;;5008596;28;20204;-73
2023/07/03 09:48:24;;;;;;;6.55;3.65;;;24.70;88.70;;;;;;5011326;28;20220;-73
2023/07/03 09:50:50;;;;;;;11.75;3.35;;;24.90;89.00;;;;;;5012241;28;20208;-76
2023/07/03 09:53:20;;;;;;;9.70;3.50;;;25.10;89.70;;;;;;5010123;28;20206;-71
2023/07/03 09:55:54;;;;;;;10.93;3.97;;;25.70;89.70;;;;;;5012091;28;20201;-74
2023/07/03 09:58:24;;;;;;;8.68;5.05;;;25.90;89.90;;;;;;5007348;28;20212;-74
2023/07/03 10:00:55;;;;;;;11.65;4.53;;;25.80;90.10;;;;;;5010616;28;20212;-74
2023/07/03 10:03:23;;;;;;;11.80;3.97;;;25.60;90.70;;;;;;5004648;28;20224;-73
2023/07/03 10:05:49;;;;;;;10.15;4.38;;;25.10;90.80;;;;;;5003486;28;20275;-74
2023/07/03 10:08:22;;;;;;;7.95;3.53;;;24.90;90.60;;;;;;5011063;28;20205;-73
2023/07/03 10:10:49;;;;;;;6.80;3.38;;;24.90;90.70;;;;;;5031654;28;20284;-74
2023/07/03 10:13:42;;;;;;;7.57;3.67;;;24.70;91.00;;;;;;5019089;28;20240;-74
2023/07/03 10:16:10;;;;;;;8.95;3.28;;;24.70;91.50;;;;;;5014352;28;20205;-72
2023/07/03 10:18:38;;;;;;;8.13;4.15;;;24.70;91.50;;;;;;5014786;28;20617;-75
2023/07/03 10:21:08;;;;;;;8.13;2.97;;;24.80;91.00;;;;;;5015698;28;20271;-74
2023/07/03 10:23:38;;;;;;;6.78;3.50;;;24.90;90.50;;;;;;5009305;28;20172;-73
2023/07/03 10:26:21;;;;;;;8.05;3.67;;;24.80;90.60;;;;;;5012116;28;20251;-75
2023/07/03 10:28:50;;;;;;;9.57;3.58;;;24.60;90.90;;;;;;5010635;28;20220;-75
2023/07/03 10:31:28;;;;;;;7.93;3.33;;;24.50;91.10;;;;;;5015245;28;20213;-74
2023/07/03 10:34:01;;;;;;;10.35;3.25;;;24.50;91.30;;;;;;5009385;28;20209;-74
2023/07/03 10:36:30;;;;;;;10.55;3.63;;;24.40;91.70;;;;;;5007305;28;20558;-74
2023/07/03 10:39:30;;;;;;;8.07;3.60;;;24.80;91.50;;;;;;5011204;28;20209;-75
2023/07/03 10:42:02;;;;;;;8.32;3.33;;;24.90;91.10;;;;;;5014356;28;20299;-75
2023/07/03 10:44:32;;;;;;;15.68;3.75;;;25.00;90.90;;;;;;5005113;28;20182;-74
2023/07/03 10:47:04;;;;;;;8.13;3.40;;;25.30;90.50;;;;;;5016213;28;20221;-74
2023/07/03 10:49:36;;;;;;;6.40;2.83;;;25.30;90.70;;;;;;5016947;28;20230;-74
2023/07/03 10:52:17;;;;;;;9.60;2.83;;;25.40;90.30;;;;;;5011936;28;20676;-75
2023/07/03 10:55:08;;;;;;;8.95;3.60;;;25.70;90.60;;;;;;5018224;28;20205;-74
2023/07/03 10:57:44;;;;;;;8.75;3.50;;;26.00;90.60;;;;;;5013805;28;20770;-74
2023/07/03 11:00:17;;;;;;;9.50;3.42;;;25.90;89.50;;;;;;5012973;28;20208;-73
2023/07/03 11:03:11;;;;;;;7.93;3.03;;;26.20;90.00;;;;;;5013265;28;20584;-75
2023/07/03 11:05:51;;;;;;;10.75;3.53;;;26.10;90.10;;;;;;5008211;28;22320;-75
2023/07/03 11:08:56;;;;;;;10.60;3.38;;;26.10;89.60;;;;;;5009662;28;20296;-75
2023/07/03 11:11:40;;;;;;;7.30;2.80;;;25.60;89.10;;;;;;5007165;28;20189;-75
2023/07/03 11:14:15;;;;;;;8.95;4.00;;;25.00;90.60;;;;;;5009160;28;20255;-75
2023/07/03 11:17:04;;;;;;;8.40;2.88;;;24.40;91.80;;;;;;5001673;28;20626;-76
2023/07/03 11:19:33;;;;;;;8.77;3.72;;;24.10;91.70;;;;;;4997241;28;20278;-75
2023/07/03 11:22:12;;;;;;;8.65;3.22;;;24.10;91.80;;;;;;5004229;28;20651;-75
2023/07/03 11:24:45;;;;;;;8.15;3.55;;;24.10;92.40;;;;;;5006345;28;20269;-74
2023/07/03 11:27:40;;;;;;;8.68;3.38;;;24.20;92.60;;;;;;5013824;28;20221;-74
2023/07/03 11:30:08;;;;;;;9.25;3.00;;;24.20;93.30;;;;;;5014093;28;20224;-74
2023/07/03 11:32:35;;;;;;;7.70;3.28;;;24.20;93.60;;;;;;5014777;28;20183;-75
2023/07/03 11:35:02;;;;;;;8.50;3.40;;;24.30;93.80;;;;;;5015915;28;20259;-75
2023/07/03 11:37:34;;;;;;;9.43;3.38;;;24.20;93.90;;;;;;5010348;28;20218;-76
2023/07/03 11:40:29;;;;;;;9.75;3.58;;;23.90;94.20;;;;;;5005973;28;20209;-75
2023/07/03 11:43:16;;;;;;;10.55;3.67;;;23.50;94.10;;;;;;5010052;28;20220;-75
2023/07/03 11:45:58;;;;;;;8.27;3.28;;;23.40;94.60;;;;;;5007349;28;20295;-74
2023/07/03 11:48:36;;;;;;;9.88;3.42;;;23.50;95.10;;;;;;5007636;28;20213;-76
2023/07/03 11:51:07;;;;;;;7.38;3.25;;;23.60;95.10;;;;;;5007333;28;20209;-76
2023/07/03 11:53:37;;;;;;;8.73;3.70;;;23.80;94.70;;;;;;5006464;28;20183;-75
2023/07/03 11:56:04;;;;;;;8.43;3.28;;;24.00;94.60;;;;;;5008906;28;20232;-76
2023/07/03 11:58:35;;;;;;;10.80;3.85;;;24.20;94.80;;;;;;5003763;28;20213;-75
2023/07/03 12:01:20;;;;;;;8.68;3.67;;;24.50;94.90;;;;;;5010805;28;20232;-75
2023/07/03 12:03:52;;;;;;;9.07;3.13;;;24.30;94.80;;;;;;5015924;28;20265;-75
2023/07/03 12:06:39;;;;;;;11.75;3.85;;;24.20;95.50;;;;;;5017421;28;20220;-75
2023/07/03 12:09:23;;;;;;;11.55;3.95;;;23.90;95.70;;;;;;5005032;28;20319;-75
2023/07/03 12:12:04;;;;;;;8.43;3.03;;;23.80;95.60;;;;;;5009708;28;20219;-75
2023/07/03 12:14:47;;;;;;;10.63;3.90;;;23.90;95.50;;;;;;5006946;28;20177;-74
2023/07/03 12:17:18;;;;;;;8.80;3.28;;;23.70;95.70;;;;;;5010028;28;20525;-75
2023/07/03 12:19:45;;;;;;;11.52;4.05;;;23.80;95.40;;;;;;5005537;28;20232;-73
2023/07/03 12:22:29;;;;;;;9.15;3.75;;;23.60;94.80;;;;;;5011017;28;20208;-75
2023/07/03 12:25:21;;;;;;;9.20;3.60;;;23.40;94.80;;;;;;5009612;28;20200;-73
2023/07/03 12:27:48;;;;;;;10.23;3.25;;;23.40;94.90;;;;;;5007832;28;20209;-75
2023/07/03 12:30:23;;;;;;;9.10;2.97;;;23.20;95.00;;;;;;5006698;28;20311;-74
2023/07/03 12:32:50;;;;;;;8.90;3.22;;;23.20;95.40;;;;;;5015856;28;20213;-73
2023/07/03 12:35:23;;;;;;;13.52;3.42;;;23.30;95.80;;;;;;5001263;28;20185;-74
2023/07/03 12:37:53;;;;;;;8.95;2.90;;;23.30;96.00;;;;;;5004767;28;20615;-75
2023/07/03 12:40:20;;;;;;;11.55;3.10;;;23.50;96.40;;;;;;4999073;28;20220;-75
2023/07/03 12:42:51;;;;;;;7.13;3.03;;;23.70;96.70;;;;;;5022244;28;20214;-75
2023/07/03 12:45:29;;;;;;;10.20;3.83;;;23.50;96.70;;;;;;5016820;28;20220;-74
2023/07/03 12:48:09;;;;;;;9.80;3.63;;;23.60;97.20;;;;;;5034240;28;20230;-75
2023/07/03 12:50:44;;;;;;;8.43;3.38;;;23.90;97.00;;;;;;5018559;28;20274;-75
2023/07/03 12:53:10;;;;;;;7.78;3.20;;;24.00;97.40;;;;;;5026785;28;20727;-75